Time;durP1;ratioP1;P1;durP2;ratioP2;P2;SDS_P1;SDS_P2;PMS_P1;PMS_P2;Temp;Humidity;BMP_temperature;BMP_pressure;BME280_temperature;BME280_humidity;BME280_pressure;Samples;Min_cycle;Max_cycle;Signal;HPM_P1;HPM_P2
2022/09/08 18:56:30;;;;;;;57.58;6.70;;;;;;;;;;5108811;27;20476;-66
2022/09/08 18:59:15;;;;;;;27.50;4.25;;;;;;;;;;5109337;28;20024;-66
2022/09/08 19:01:41;;;;;;;22.95;4.53;;;;;;;;;;5090226;28;20024;-66
2022/09/08 19:04:14;;;;;;;30.13;4.10;;;;;;;;;;5102948;28;20018;-66
2022/09/08 19:06:45;;;;;;;40.53;5.20;;;;;;;;;;5105727;28;20445;-66
2022/09/08 19:09:26;;;;;;;29.85;3.67;;;;;;;;;;5107079;28;20137;-66
2022/09/08 19:12:06;;;;;;;28.80;3.50;;;;;;;;;;5109071;28;20055;-66
2022/09/08 19:14:52;;;;;;;59.28;4.10;;;;;;;;;;5106683;28;20080;-66
2022/09/08 19:17:28;;;;;;;22.35;2.83;;;;;;;;;;5108508;28;20044;-66
2022/09/08 19:19:56;;;;;;;14.05;2.08;;;;;;;;;;5100420;28;20036;-67
2022/09/08 19:22:25;;;;;;;21.73;2.70;;;;;;;;;;5112900;28;20020;-67
2022/09/08 19:24:56;;;;;;;15.25;2.00;;;;;;;;;;5109111;28;20039;-66
2022/09/08 19:27:39;;;;;;;9.63;2.00;;;;;;;;;;5107306;28;20028;-67
2022/09/08 19:30:26;;;;;;;18.65;1.88;;;;;;;;;;5108072;28;20103;-66
2022/09/08 19:32:55;;;;;;;11.52;1.50;;;;;;;;;;5098343;28;20039;-66
2022/09/08 19:35:26;;;;;;;14.63;1.92;;;;;;;;;;5108812;28;20046;-66
2022/09/08 19:37:55;;;;;;;11.43;1.88;;;;;;;;;;5093849;28;20104;-67
2022/09/08 19:40:40;;;;;;;33.20;2.80;;;;;;;;;;5108802;28;20187;-66
2022/09/08 19:43:22;;;;;;;14.43;1.77;;;;;;;;;;5108578;28;20020;-66
2022/09/08 19:45:51;;;;;;;10.88;1.70;;;;;;;;;;5093562;28;20099;-67
2022/09/08 19:48:40;;;;;;;11.88;1.50;;;;;;;;;;5108816;28;20008;-66
2022/09/08 19:51:09;;;;;;;12.70;1.30;;;;;;;;;;5094385;28;20498;-66
2022/09/08 19:53:39;;;;;;;14.18;1.80;;;;;;;;;;5106956;28;20032;-66
2022/09/08 19:56:08;;;;;;;47.15;2.90;;;;;;;;;;5099459;28;20043;-66
2022/09/08 19:58:34;;;;;;;20.10;1.75;;;;;;;;;;5108968;28;20394;-66
2022/09/08 20:01:02;;;;;;;12.15;1.55;;;;;;;;;;5100036;28;20023;-66
2022/09/08 20:03:47;;;;;;;9.65;1.50;;;;;;;;;;5107116;28;20038;-66
2022/09/08 20:06:26;;;;;;;16.10;1.73;;;;;;;;;;5092211;28;20020;-66
2022/09/08 20:08:53;;;;;;;14.05;1.65;;;;;;;;;;5095162;28;20393;-66
2022/09/08 20:11:27;;;;;;;8.55;2.10;;;;;;;;;;5094184;28;20023;-66
2022/09/08 20:14:10;;;;;;;11.27;1.67;;;;;;;;;;5095293;28;20024;-65
2022/09/08 20:16:39;;;;;;;17.63;1.70;;;;;;;;;;5095088;28;20032;-65
2022/09/08 20:19:18;;;;;;;20.05;1.58;;;;;;;;;;5093567;28;20473;-65
2022/09/08 20:21:45;;;;;;;10.57;1.50;;;;;;;;;;5095161;28;20160;-65
2022/09/08 20:24:21;;;;;;;16.13;1.65;;;;;;;;;;5095066;28;20023;-65
2022/09/08 20:26:52;;;;;;;12.57;1.55;;;;;;;;;;5082426;28;20028;-65
2022/09/08 20:29:28;;;;;;;13.07;1.50;;;;;;;;;;5091575;28;20028;-66
2022/09/08 20:32:08;;;;;;;17.40;2.35;;;;;;;;;;5093861;28;20024;-65
2022/09/08 20:34:45;;;;;;;11.85;1.60;;;;;;;;;;5094783;28;20040;-66
2022/09/08 20:37:11;;;;;;;17.90;2.00;;;;;;;;;;5094274;28;20060;-66
2022/09/08 20:39:56;;;;;;;17.38;1.88;;;;;;;;;;5093876;28;20148;-66
2022/09/08 20:42:31;;;;;;;13.30;1.60;;;;;;;;;;5092999;28;20028;-65
2022/09/08 20:45:06;;;;;;;15.77;1.80;;;;;;;;;;5092462;28;20051;-67
2022/09/08 20:47:52;;;;;;;15.52;1.65;;;;;;;;;;5082617;28;20039;-66
2022/09/08 20:50:37;;;;;;;14.90;1.63;;;;;;;;;;5071182;28;20398;-67
2022/09/08 20:53:22;;;;;;;16.23;1.80;;;;;;;;;;5085357;28;20085;-67
2022/09/08 20:55:49;;;;;;;17.20;1.92;;;;;;;;;;5087116;28;20535;-67
2022/09/08 20:58:16;;;;;;;10.07;1.70;;;;;;;;;;5088174;28;20024;-67
2022/09/08 21:00:44;;;;;;;13.95;1.77;;;;;;;;;;5090522;28;20093;-66
2022/09/08 21:03:12;;;;;;;16.48;2.10;;;;;;;;;;5086430;28;20005;-67
2022/09/08 21:05:39;;;;;;;14.13;1.70;;;;;;;;;;5103416;28;20355;-67
2022/09/08 21:08:19;;;;;;;20.02;1.88;;;;;;;;;;5085110;28;20024;-66
2022/09/08 21:10:55;;;;;;;17.15;2.25;;;;;;;;;;5088043;28;20032;-66
2022/09/08 21:13:24;;;;;;;13.85;1.75;;;;;;;;;;5084120;28;20066;-66
2022/09/08 21:16:04;;;;;;;10.07;1.98;;;;;;;;;;5089684;28;20097;-67
2022/09/08 21:18:33;;;;;;;11.55;1.70;;;;;;;;;;5083986;28;20389;-67
2022/09/08 21:21:02;;;;;;;9.65;1.70;;;;;;;;;;5088663;28;20103;-66
2022/09/08 21:23:31;;;;;;;11.57;1.63;;;;;;;;;;5086075;28;20051;-67
2022/09/08 21:26:03;;;;;;;17.70;2.40;;;;;;;;;;5087349;28;20005;-67
2022/09/08 21:28:33;;;;;;;17.48;2.33;;;;;;;;;;5081453;28;20028;-67
2022/09/08 21:31:10;;;;;;;12.88;1.60;;;;;;;;;;5082251;28;20020;-67
2022/09/08 21:33:39;;;;;;;12.23;1.90;;;;;;;;;;5094498;28;20036;-66
2022/09/08 21:36:11;;;;;;;12.25;1.70;;;;;;;;;;5085652;28;20050;-66
2022/09/08 21:38:41;;;;;;;7.70;1.38;;;;;;;;;;5085589;28;20031;-67
2022/09/08 21:41:17;;;;;;;25.27;2.47;;;;;;;;;;5083231;28;20021;-67
2022/09/08 21:43:46;;;;;;;21.80;2.70;;;;;;;;;;5085328;28;20026;-66
2022/09/08 21:46:20;;;;;;;14.57;1.92;;;;;;;;;;5091556;28;20020;-66
2022/09/08 21:48:47;;;;;;;18.67;2.55;;;;;;;;;;5083669;28;20103;-66
2022/09/08 21:51:34;;;;;;;8.50;1.70;;;;;;;;;;5085249;28;20033;-65
2022/09/08 21:54:02;;;;;;;7.90;1.35;;;;;;;;;;5078167;28;20105;-64
2022/09/08 21:56:31;;;;;;;4.38;1.27;;;;;;;;;;5077379;28;20512;-65
2022/09/08 21:58:57;;;;;;;6.72;1.23;;;;;;;;;;5086678;28;20882;-66
2022/09/08 22:01:36;;;;;;;7.55;1.42;;;;;;;;;;5088953;28;20477;-65
2022/09/08 22:04:14;;;;;;;6.47;1.27;;;;;;;;;;5079957;28;20028;-66
2022/09/08 22:06:46;;;;;;;8.70;1.40;;;;;;;;;;5079594;28;20032;-65
2022/09/08 22:09:13;;;;;;;5.60;1.40;;;;;;;;;;5088459;28;20028;-65
2022/09/08 22:11:43;;;;;;;5.22;1.30;;;;;;;;;;5083853;28;20028;-65
2022/09/08 22:14:11;;;;;;;7.88;1.40;;;;;;;;;;5081995;28;20807;-66
2022/09/08 22:16:43;;;;;;;7.78;1.27;;;;;;;;;;5085085;28;20036;-66
2022/09/08 22:19:30;;;;;;;7.78;1.30;;;;;;;;;;5086460;28;20495;-68
2022/09/08 22:22:11;;;;;;;4.93;1.30;;;;;;;;;;5087672;28;20106;-64
2022/09/08 22:24:37;;;;;;;12.65;1.50;;;;;;;;;;5086494;28;20063;-64
2022/09/08 22:27:32;;;;;;;80.75;3.72;;;;;;;;;;5081066;28;20020;-65
2022/09/08 22:30:00;;;;;;;9.27;1.40;;;;;;;;;;5074462;28;20028;-65
2022/09/08 22:32:44;;;;;;;9.50;1.38;;;;;;;;;;5085888;28;20107;-66
2022/09/08 22:35:14;;;;;;;7.15;1.15;;;;;;;;;;5083624;28;20028;-67
2022/09/08 22:37:58;;;;;;;11.15;1.70;;;;;;;;;;5083432;28;20012;-68
2022/09/08 22:40:51;;;;;;;6.30;1.30;;;;;;;;;;5086367;28;20028;-68
2022/09/08 22:43:29;;;;;;;10.45;1.70;;;;;;;;;;5071097;28;20565;-68
2022/09/08 22:46:19;;;;;;;7.65;1.60;;;;;;;;;;5088750;28;20098;-67
2022/09/08 22:49:02;;;;;;;7.00;1.35;;;;;;;;;;5082849;28;20449;-67
2022/09/08 22:51:42;;;;;;;5.80;1.30;;;;;;;;;;5084923;28;20134;-67
2022/09/08 22:54:24;;;;;;;5.75;1.30;;;;;;;;;;5085737;28;20036;-67
2022/09/08 22:56:54;;;;;;;4.28;1.38;;;;;;;;;;5084681;28;20032;-69
2022/09/08 22:59:28;;;;;;;8.07;1.45;;;;;;;;;;5084613;28;20024;-66
2022/09/08 23:02:07;;;;;;;6.57;1.70;;;;;;;;;;5082023;28;20102;-67
2022/09/08 23:04:40;;;;;;;6.20;1.40;;;;;;;;;;5082910;28;20089;-65
2022/09/08 23:07:40;;;;;;;11.10;1.52;;;;;;;;;;5085589;28;20074;-65
2022/09/08 23:10:16;;;;;;;9.25;1.58;;;;;;;;;;5062888;28;20051;-67
2022/09/08 23:12:45;;;;;;;7.32;1.40;;;;;;;;;;5082464;28;20032;-66
2022/09/08 23:15:19;;;;;;;25.65;2.22;;;;;;;;;;5080842;28;20424;-65
2022/09/08 23:17:46;;;;;;;8.38;1.30;;;;;;;;;;5084229;28;20016;-66
2022/09/08 23:20:21;;;;;;;11.25;2.38;;;;;;;;;;5078559;28;20025;-65
2022/09/08 23:22:58;;;;;;;8.15;1.50;;;;;;;;;;5075279;28;20105;-66
2022/09/08 23:25:24;;;;;;;5.95;1.40;;;;;;;;;;5086856;28;20028;-67
2022/09/08 23:27:57;;;;;;;8.85;1.70;;;;;;;;;;5082176;28;20016;-66
2022/09/08 23:30:27;;;;;;;6.03;1.50;;;;;;;;;;5082997;28;20028;-66
2022/09/08 23:33:13;;;;;;;5.65;1.30;;;;;;;;;;5085303;28;20023;-67
2022/09/08 23:35:41;;;;;;;6.88;1.75;;;;;;;;;;5082176;28;20036;-66
2022/09/08 23:38:10;;;;;;;7.93;1.85;;;;;;;;;;5087395;28;20019;-67
2022/09/08 23:40:37;;;;;;;7.50;1.83;;;;;;;;;;5086867;28;20111;-66
2022/09/08 23:43:09;;;;;;;11.52;1.80;;;;;;;;;;5089323;28;20052;-65
2022/09/08 23:45:37;;;;;;;13.20;2.53;;;;;;;;;;5089674;28;20026;-64
2022/09/08 23:48:07;;;;;;;9.63;2.30;;;;;;;;;;5092574;28;20016;-66
2022/09/08 23:50:34;;;;;;;14.10;2.33;;;;;;;;;;5093859;28;20023;-67
2022/09/08 23:53:05;;;;;;;6.57;1.67;;;;;;;;;;5093344;28;20397;-67
2022/09/08 23:55:32;;;;;;;15.23;2.55;;;;;;;;;;5092689;28;20070;-68
2022/09/08 23:58:00;;;;;;;16.52;3.50;;;;;;;;;;5093804;28;20034;-66
